Piedmont, California
Current Conditions -  °F | °C
As of 12:53 PM on Tuesday 25 Nov 2014 (Local Time) from KOAK Reporting Station
Few Clouds Few Clouds  
Wind Chill: 60°   Ceiling: Unl
Heat Index: 60°   Visibility: 10mi
Dew Point: 46°   Wind: 7mph
Humidity: 60%   Direction: 230°SW
Pressure: 30.39"   Gusts: NA
Location:  37.82°N, 122.23°W
Report Text: KOAK 252053Z 23006KT 10SM FEW200 16/08 A3039 RMK AO2 SLP292 T01560078 58023 $
Loading
Personal Weather Stations






























Interactive Weather Map New forecast layout! Learn more

10-Day Weather Forecast

Advertisements
Track Severe Weather on mobile